createdAt,value
2022-10-01T00:03:16.404Z,0.00
2022-10-01T00:08:16.226Z,0.00
2022-10-01T00:13:16.371Z,0.00
2022-10-01T00:18:28.425Z,0.00
2022-10-01T00:23:30.167Z,0.00
2022-10-01T00:28:17.462Z,0.00
2022-10-01T00:33:21.625Z,0.00
2022-10-01T00:38:17.980Z,0.00
2022-10-01T00:43:16.020Z,0.00
2022-10-01T00:48:15.828Z,0.00
2022-10-01T00:53:15.808Z,0.00
2022-10-01T00:58:15.771Z,0.00
2022-10-01T01:03:15.639Z,0.00
2022-10-01T01:08:15.554Z,0.00
2022-10-01T01:13:15.679Z,0.00
2022-10-01T01:18:15.597Z,0.00
2022-10-01T01:23:15.575Z,0.00
2022-10-01T01:28:15.720Z,0.00
2022-10-01T01:33:15.483Z,0.00
2022-10-01T01:38:16.406Z,0.00
2022-10-01T01:43:15.332Z,0.00
2022-10-01T01:48:15.301Z,0.00
2022-10-01T01:53:15.183Z,0.00
2022-10-01T01:58:15.181Z,0.00
2022-10-01T02:03:15.172Z,0.00
2022-10-01T02:08:15.035Z,0.00
2022-10-01T02:13:14.902Z,0.00
2022-10-01T02:18:14.812Z,0.00
2022-10-01T02:23:14.737Z,0.00
2022-10-01T02:28:14.745Z,0.00
2022-10-01T02:33:14.658Z,0.00
2022-10-01T02:38:14.710Z,0.00
2022-10-01T02:43:14.513Z,0.00
2022-10-01T02:48:14.496Z,0.00
2022-10-01T02:53:14.512Z,0.00
2022-10-01T02:58:14.458Z,0.00
2022-10-01T03:03:14.296Z,0.00
2022-10-01T03:08:14.250Z,0.00
2022-10-01T03:13:14.359Z,0.00
2022-10-01T03:18:14.299Z,0.00
2022-10-01T03:23:14.221Z,0.00
2022-10-01T03:28:14.249Z,0.00
2022-10-01T03:33:14.144Z,0.00
2022-10-01T03:38:14.028Z,0.00
2022-10-01T03:43:13.919Z,0.00
2022-10-01T03:48:13.857Z,0.00
2022-10-01T03:53:13.966Z,0.00
2022-10-01T03:58:13.970Z,0.00
2022-10-01T04:03:13.993Z,0.00
2022-10-01T04:08:13.776Z,0.00
2022-10-01T04:13:14.767Z,0.00
2022-10-01T04:18:13.680Z,0.00
2022-10-01T04:23:13.494Z,0.00
2022-10-01T04:28:13.397Z,0.00
2022-10-01T04:33:14.395Z,0.00
2022-10-01T04:38:13.421Z,0.00
2022-10-01T04:43:13.310Z,0.00
2022-10-01T04:48:13.181Z,0.00
2022-10-01T04:53:13.129Z,0.00
2022-10-01T04:58:13.070Z,0.00
2022-10-01T05:03:13.036Z,0.00
2022-10-01T05:08:13.039Z,0.00
2022-10-01T05:13:12.923Z,0.00
2022-10-01T05:18:12.949Z,0.00
2022-10-01T05:23:12.812Z,0.00
2022-10-01T05:28:12.940Z,0.00
2022-10-01T05:33:12.825Z,5.62
2022-10-01T05:38:12.697Z,5.62
2022-10-01T05:43:12.565Z,5.62
2022-10-01T05:48:13.656Z,5.62
2022-10-01T05:53:12.516Z,11.25
2022-10-01T05:58:12.680Z,16.88
2022-10-01T06:03:12.738Z,22.50
2022-10-01T06:08:13.721Z,39.38
2022-10-01T06:13:13.486Z,45.00
2022-10-01T06:18:14.379Z,39.38
2022-10-01T06:23:12.323Z,50.62
2022-10-01T06:28:12.187Z,50.62
2022-10-01T06:33:12.166Z,50.62
2022-10-01T06:38:11.953Z,45.00
2022-10-01T06:43:12.000Z,50.62
2022-10-01T06:48:12.052Z,67.50
2022-10-01T06:53:11.944Z,118.12
2022-10-01T06:58:11.781Z,118.12
2022-10-01T07:03:11.718Z,73.12
2022-10-01T07:08:11.755Z,73.12
2022-10-01T07:13:11.618Z,123.75
2022-10-01T07:18:11.558Z,163.12
2022-10-01T07:23:11.485Z,129.38
2022-10-01T07:28:11.434Z,140.62
2022-10-01T07:33:11.337Z,151.88
2022-10-01T07:38:11.338Z,180.00
2022-10-01T07:43:11.271Z,123.75
2022-10-01T07:48:11.359Z,135.00
2022-10-01T07:53:11.218Z,163.12
2022-10-01T07:58:11.100Z,376.88
2022-10-01T08:04:44.651Z,534.38
2022-10-01T08:09:44.676Z,652.50
2022-10-01T08:14:44.623Z,669.38
2022-10-01T08:19:44.483Z,770.62
2022-10-01T08:24:44.464Z,781.88
2022-10-01T08:29:44.453Z,562.50
2022-10-01T08:34:44.461Z,1530.00
2022-10-01T08:39:44.265Z,838.12
2022-10-01T08:44:44.196Z,748.12
2022-10-01T08:49:44.139Z,1327.50
2022-10-01T08:54:44.211Z,1215.00
2022-10-01T08:59:44.053Z,1091.25
2022-10-01T09:04:44.024Z,1029.38
2022-10-01T09:09:44.076Z,579.38
2022-10-01T09:14:44.949Z,855.00
2022-10-01T09:19:47.767Z,1518.75
2022-10-01T09:24:43.765Z,1518.75
2022-10-01T09:29:43.896Z,1068.75
2022-10-01T09:34:43.683Z,765.00
2022-10-01T09:39:43.590Z,517.50
2022-10-01T09:44:43.611Z,382.50
2022-10-01T09:49:43.514Z,444.38
2022-10-01T09:54:43.547Z,444.38
2022-10-01T09:59:46.936Z,258.75
2022-10-01T10:04:43.383Z,354.38
2022-10-01T10:09:43.417Z,483.75
2022-10-01T10:14:43.208Z,1096.88
2022-10-01T10:19:43.147Z,1305.00
2022-10-01T10:24:43.097Z,2649.38
2022-10-01T10:29:43.165Z,1530.00
2022-10-01T10:34:51.979Z,787.50
2022-10-01T10:39:42.901Z,630.00
2022-10-01T10:44:42.867Z,1226.25
2022-10-01T10:49:42.814Z,1293.75
2022-10-01T10:54:42.850Z,1496.25
2022-10-01T10:59:42.790Z,669.38
2022-10-01T11:04:42.732Z,810.00
2022-10-01T11:09:42.667Z,691.88
2022-10-01T11:14:42.597Z,1569.38
2022-10-01T11:19:42.482Z,1181.25
2022-10-01T11:24:42.421Z,2019.38
2022-10-01T11:29:42.363Z,945.00
2022-10-01T11:34:42.514Z,2013.75
2022-10-01T11:39:42.447Z,2103.75
2022-10-01T11:44:42.387Z,2570.62
2022-10-01T11:49:43.371Z,2503.12
2022-10-01T11:54:42.146Z,1445.62
2022-10-01T11:59:42.061Z,1186.88
2022-10-01T12:04:42.226Z,585.00
2022-10-01T12:09:41.954Z,1175.62
2022-10-01T12:14:43.028Z,2227.50
2022-10-01T12:19:41.955Z,1895.62
2022-10-01T12:24:41.859Z,2340.00
2022-10-01T12:29:41.990Z,2227.50
2022-10-01T12:34:41.794Z,731.25
2022-10-01T12:39:41.651Z,1996.88
2022-10-01T12:44:41.665Z,630.00
2022-10-01T12:49:42.613Z,1355.62
2022-10-01T12:54:41.644Z,2413.12
2022-10-01T12:59:41.415Z,1929.38
2022-10-01T13:04:41.438Z,1006.88
2022-10-01T13:09:44.251Z,950.62
2022-10-01T13:14:44.429Z,765.00
2022-10-01T13:19:41.298Z,731.25
2022-10-01T13:24:41.159Z,472.50
2022-10-01T13:29:41.113Z,1040.62
2022-10-01T13:34:41.147Z,590.62
2022-10-01T13:39:42.117Z,393.75
2022-10-01T13:44:40.900Z,393.75
2022-10-01T13:49:41.040Z,298.12
2022-10-01T13:54:40.841Z,315.00
2022-10-01T13:59:40.906Z,315.00
2022-10-01T14:06:14.824Z,630.00
2022-10-01T14:11:16.283Z,410.62
2022-10-01T14:16:14.777Z,388.12
2022-10-01T14:21:14.719Z,348.75
2022-10-01T14:26:14.616Z,337.50
2022-10-01T14:31:14.625Z,320.62
2022-10-01T14:36:14.505Z,298.12
2022-10-01T14:41:14.479Z,286.88
2022-10-01T14:46:14.399Z,309.38
2022-10-01T14:51:14.327Z,315.00
2022-10-01T14:56:14.239Z,326.25
2022-10-01T15:01:14.335Z,410.62
2022-10-01T15:06:14.170Z,326.25
2022-10-01T15:11:14.113Z,348.75
2022-10-01T15:16:14.107Z,298.12
2022-10-01T15:21:14.029Z,292.50
2022-10-01T15:26:13.953Z,360.00
2022-10-01T15:31:13.972Z,326.25
2022-10-01T15:36:13.884Z,303.75
2022-10-01T15:41:31.127Z,376.88
2022-10-01T15:46:14.879Z,371.25
2022-10-01T15:51:13.788Z,225.00
2022-10-01T15:56:13.666Z,241.88
2022-10-01T16:01:13.669Z,185.62
2022-10-01T16:06:13.556Z,174.38
2022-10-01T16:11:13.543Z,163.12
2022-10-01T16:16:13.442Z,151.88
2022-10-01T16:21:13.675Z,135.00
2022-10-01T16:26:13.301Z,118.12
2022-10-01T16:31:13.415Z,112.50
2022-10-01T16:36:13.267Z,118.12
2022-10-01T16:41:14.263Z,95.62
2022-10-01T16:46:13.212Z,78.75
2022-10-01T16:51:13.056Z,67.50
2022-10-01T16:56:12.974Z,50.62
2022-10-01T17:01:13.112Z,39.38
2022-10-01T17:06:12.893Z,28.12
2022-10-01T17:11:12.945Z,16.88
2022-10-01T17:16:12.890Z,11.25
2022-10-01T17:21:14.988Z,5.62
2022-10-01T17:26:12.728Z,0.00
2022-10-01T17:31:17.531Z,0.00
2022-10-01T17:36:13.644Z,0.00
2022-10-01T17:41:12.575Z,0.00
2022-10-01T17:46:12.657Z,0.00
2022-10-01T17:51:13.495Z,0.00
2022-10-01T17:56:15.932Z,0.00
2022-10-01T18:01:13.443Z,0.00
2022-10-01T18:06:12.223Z,0.00
2022-10-01T18:11:12.175Z,0.00
2022-10-01T18:16:15.026Z,0.00
2022-10-01T18:21:13.209Z,0.00
2022-10-01T18:26:12.006Z,0.00
2022-10-01T18:31:12.076Z,0.00
2022-10-01T18:36:11.919Z,0.00
2022-10-01T18:41:11.856Z,0.00
2022-10-01T18:46:14.344Z,0.00
2022-10-01T18:51:11.780Z,0.00
2022-10-01T18:56:11.681Z,0.00
2022-10-01T19:01:11.744Z,0.00
2022-10-01T19:06:11.596Z,0.00
2022-10-01T19:11:17.652Z,0.00
2022-10-01T19:16:12.606Z,0.00
2022-10-01T19:21:11.499Z,0.00
2022-10-01T19:26:11.530Z,0.00
2022-10-01T19:31:11.448Z,0.00
2022-10-01T19:36:13.530Z,0.00
2022-10-01T19:41:13.335Z,0.00
2022-10-01T19:46:11.302Z,0.00
2022-10-01T19:51:11.172Z,0.00
2022-10-01T19:56:11.040Z,0.00
2022-10-01T20:01:11.181Z,0.00
2022-10-01T20:06:11.271Z,0.00
2022-10-01T20:11:10.947Z,0.00
2022-10-01T20:16:23.084Z,0.00
2022-10-01T20:21:10.777Z,0.00
2022-10-01T20:26:12.891Z,0.00
2022-10-01T20:31:10.943Z,0.00
2022-10-01T20:36:10.755Z,0.00
2022-10-01T20:41:11.629Z,0.00
2022-10-01T20:46:10.679Z,0.00
2022-10-01T20:51:10.688Z,0.00
2022-10-01T20:56:10.433Z,0.00
2022-10-01T21:01:10.526Z,0.00
2022-10-01T21:06:10.376Z,0.00
2022-10-01T21:11:10.252Z,0.00
2022-10-01T21:16:11.275Z,0.00
2022-10-01T21:21:10.264Z,0.00
2022-10-01T21:26:11.255Z,0.00
2022-10-01T21:31:10.204Z,0.00
2022-10-01T21:36:12.222Z,0.00
2022-10-01T21:41:10.007Z,0.00
2022-10-01T21:46:09.975Z,0.00
2022-10-01T21:51:09.868Z,0.00
2022-10-01T21:56:09.805Z,0.00
2022-10-01T22:01:09.748Z,0.00
2022-10-01T22:06:09.706Z,0.00
2022-10-01T22:11:09.662Z,0.00
2022-10-01T22:16:09.761Z,0.00
2022-10-01T22:21:10.701Z,0.00
2022-10-01T22:26:09.646Z,0.00
2022-10-01T22:31:09.447Z,0.00
2022-10-01T22:36:09.506Z,0.00
2022-10-01T22:41:09.501Z,0.00
2022-10-01T22:46:09.339Z,0.00
2022-10-01T22:51:09.278Z,0.00
2022-10-01T22:56:09.605Z,0.00
2022-10-01T23:01:10.737Z,0.00
2022-10-01T23:06:09.699Z,0.00
2022-10-01T23:11:09.025Z,0.00
2022-10-01T23:16:10.991Z,0.00
2022-10-01T23:21:10.932Z,0.00
2022-10-01T23:26:08.753Z,0.00
2022-10-01T23:31:08.835Z,0.00
2022-10-01T23:36:08.680Z,0.00
2022-10-01T23:41:08.776Z,0.00
2022-10-01T23:46:08.672Z,0.00
2022-10-01T23:51:12.134Z,0.00
2022-10-01T23:56:08.553Z,0.00
